ADDS METAR Data INFO
IDs: Format: Raw Decoded Include TAF

Data at: 1600 UTC 21 Sep 2017

METAR for:ELLX (Luxembourg/Findel Ar, --, BX)
Text:ELLX 211550Z 14005KT 060V170 CAVOK 17/07 Q1019 NOSIG
Temperature: 17.0°C ( 63°F)
Dewpoint: 7.0°C ( 45°F) [RH = 52%]
Pressure (altimeter):30.09 inches Hg (1019.0 mb)
Winds:from the SE (140 degrees) at 6 MPH (5 knots; 2.6 m/s)
Visibility:6 or more sm (10+ km)
Ceiling:ceiling and visibility are OK
Clouds:unknown

TAF for:ELLX (Luxembourg/Findel Ar, --, BX) issued at 1100 UTC 21 Sep 2017
Text:TAF ELLX 211100Z 2112/2218 12006KT 9999 FEW020
Forecast period:1200 UTC 21 September 2017 to 0900 UTC 22 September 2017
Forecast type:FROM: standard forecast or significant change
Winds:from the ESE (120 degrees) at 7 MPH (6 knots; 3.1 m/s)
Visibility:6 or more sm (10+ km)
Ceiling:at least 12,000 feet AGL
Clouds: few clouds at 2000 feet AGL
Text:PROB30
Forecast period:0200 to 0700 UTC 22 September 2017
Forecast type:TEMPORARY: The following changes expected for less than half the time period
Visibility: 0.37 sm ( 0.60 km)
Clouds:missing
Weather:FG (fog)
Text:TEMPO 2202/2207 0600 FG
Forecast period:0900 to 1800 UTC 22 September 2017
Forecast type:BECOMING: Conditions expected to become as follows by 1100 UTC 22 September 2017
Winds:from the SW (220 degrees) at 6 MPH (5 knots; 2.6 m/s)
Visibility:6 or more sm (10+ km)
Ceiling:at least 12,000 feet AGL
Clouds: few clouds at 2000 feet AGL